Time;durP1;ratioP1;P1;durP2;ratioP2;P2;SDS_P1;SDS_P2;PMS_P1;PMS_P2;Temp;Humidity;BMP_temperature;BMP_pressure;BME280_temperature;BME280_humidity;BME280_pressure;Samples;Min_cycle;Max_cycle;Signal;HPM_P1;HPM_P2
2023/05/24 00:01:41;;;;;;;16.40;5.82;;;8.10;99.90;;;;;;5055005;28;20481;-38
2023/05/24 00:04:07;;;;;;;19.13;5.85;;;8.10;99.90;;;;;;5054702;28;20440;-39
2023/05/24 00:06:33;;;;;;;16.60;5.60;;;8.00;99.90;;;;;;5054647;28;20119;-35
2023/05/24 00:09:00;;;;;;;14.20;5.18;;;8.00;99.90;;;;;;5054630;28;20040;-35
2023/05/24 00:11:26;;;;;;;17.27;6.32;;;8.00;99.90;;;;;;5032469;28;20033;-39
2023/05/24 00:13:52;;;;;;;17.20;5.35;;;7.90;99.90;;;;;;5051828;28;20036;-35
2023/05/24 00:16:18;;;;;;;20.38;5.93;;;7.90;99.90;;;;;;5051261;28;20090;-37
2023/05/24 00:18:45;;;;;;;19.77;6.38;;;7.90;99.90;;;;;;5051066;28;20041;-34
2023/05/24 00:21:12;;;;;;;16.95;5.85;;;8.00;99.90;;;;;;5047737;28;20032;-36
2023/05/24 00:23:38;;;;;;;19.60;6.32;;;7.90;99.90;;;;;;5056830;28;20094;-34
2023/05/24 00:26:04;;;;;;;16.83;6.55;;;8.00;99.90;;;;;;5054065;28;20045;-34
2023/05/24 00:28:31;;;;;;;20.00;5.93;;;7.90;99.90;;;;;;5053042;28;20478;-34
2023/05/24 00:30:57;;;;;;;18.58;5.20;;;8.00;99.90;;;;;;5054110;28;20071;-35
2023/05/24 00:33:23;;;;;;;18.25;5.78;;;7.90;99.90;;;;;;5054427;28;20047;-40
2023/05/24 00:35:55;;;;;;;19.05;6.40;;;7.90;99.90;;;;;;5052286;28;20132;-37
2023/05/24 00:38:30;;;;;;;13.27;5.30;;;7.90;99.90;;;;;;5044537;28;20040;-34
2023/05/24 00:40:56;;;;;;;18.65;5.80;;;7.80;99.90;;;;;;5054279;28;20136;-38
2023/05/24 00:43:22;;;;;;;20.70;6.13;;;7.90;99.90;;;;;;5048563;28;20048;-35
2023/05/24 00:46:01;;;;;;;17.90;6.25;;;7.90;99.90;;;;;;5053818;28;20120;-35
2023/05/24 00:48:27;;;;;;;19.95;7.05;;;7.90;99.90;;;;;;5054343;28;20086;-38
2023/05/24 00:50:53;;;;;;;14.88;5.60;;;7.90;99.90;;;;;;5051032;28;20162;-38
2023/05/24 00:53:20;;;;;;;15.48;5.18;;;8.00;99.90;;;;;;5053925;28;20119;-35
2023/05/24 00:55:46;;;;;;;20.48;5.43;;;8.00;99.90;;;;;;5052387;28;20075;-38
2023/05/24 00:58:12;;;;;;;17.55;6.47;;;8.10;99.90;;;;;;5050258;28;20041;-39
2023/05/24 01:00:38;;;;;;;19.05;6.60;;;8.10;99.90;;;;;;5053942;28;20078;-38
2023/05/24 01:03:04;;;;;;;23.08;6.65;;;8.10;99.90;;;;;;5050627;28;20133;-39
2023/05/24 01:05:29;;;;;;;19.98;5.80;;;8.10;99.90;;;;;;5054123;28;20040;-34
2023/05/24 01:08:25;;;;;;;20.98;5.55;;;8.10;99.90;;;;;;5054123;28;20401;-37
2023/05/24 01:11:03;;;;;;;22.92;6.57;;;8.20;99.90;;;;;;5052658;28;20470;-37
2023/05/24 01:13:52;;;;;;;16.80;5.78;;;8.10;99.90;;;;;;5035425;28;20043;-38
2023/05/24 01:16:51;;;;;;;17.63;5.78;;;8.10;99.90;;;;;;5050613;28;20505;-39
2023/05/24 01:19:45;;;;;;;17.42;6.18;;;8.10;99.90;;;;;;5046072;28;20043;-36
2023/05/24 01:22:29;;;;;;;20.50;5.75;;;8.10;99.90;;;;;;5045470;28;20032;-40
2023/05/24 01:25:07;;;;;;;18.92;6.60;;;8.10;99.90;;;;;;5045799;28;20072;-36
2023/05/24 01:27:35;;;;;;;20.35;6.00;;;8.00;99.90;;;;;;5052922;28;20123;-39
2023/05/24 01:30:03;;;;;;;21.33;6.18;;;8.00;99.90;;;;;;5039524;28;20547;-36
2023/05/24 01:32:32;;;;;;;20.30;5.85;;;8.00;99.90;;;;;;5045687;28;20040;-34
2023/05/24 01:34:58;;;;;;;23.83;6.28;;;8.00;99.90;;;;;;5054771;28;20051;-34
2023/05/24 01:37:23;;;;;;;17.63;5.65;;;8.00;99.90;;;;;;5041646;28;20405;-34
2023/05/24 01:39:50;;;;;;;17.55;5.50;;;7.90;99.90;;;;;;5039054;28;20041;-35
2023/05/24 01:42:18;;;;;;;19.95;6.97;;;7.90;99.90;;;;;;5054503;28;20051;-35
2023/05/24 01:45:01;;;;;;;18.73;6.50;;;7.90;99.90;;;;;;5050412;28;20116;-34
2023/05/24 01:47:33;;;;;;;24.42;6.55;;;7.90;99.90;;;;;;5040431;28;20110;-34
2023/05/24 01:50:27;;;;;;;29.02;7.38;;;7.90;99.90;;;;;;5054115;28;20048;-34
2023/05/24 01:52:55;;;;;;;18.48;6.13;;;7.90;99.90;;;;;;5053856;28;20080;-36
2023/05/24 01:55:22;;;;;;;21.60;6.47;;;7.90;99.90;;;;;;5037564;28;20513;-34
2023/05/24 01:57:49;;;;;;;16.50;5.72;;;7.90;99.90;;;;;;5054346;28;20465;-36
2023/05/24 02:00:18;;;;;;;19.58;6.85;;;7.90;99.90;;;;;;5049196;28;20041;-34
2023/05/24 02:02:44;;;;;;;13.80;5.97;;;7.90;99.90;;;;;;5044383;28;20048;-36
2023/05/24 02:05:10;;;;;;;19.17;6.10;;;7.90;99.90;;;;;;5036550;28;20040;-33
2023/05/24 02:07:37;;;;;;;16.13;6.13;;;7.90;99.90;;;;;;5053245;28;20086;-34
2023/05/24 02:10:03;;;;;;;25.30;6.60;;;7.90;99.90;;;;;;5035474;28;20490;-34
2023/05/24 02:12:30;;;;;;;18.70;5.82;;;7.90;99.90;;;;;;5047282;28;20052;-35
2023/05/24 02:14:56;;;;;;;22.27;6.78;;;7.80;99.90;;;;;;5034514;28;20382;-37
2023/05/24 02:17:24;;;;;;;21.65;6.43;;;7.80;99.90;;;;;;5048311;28;20038;-34
2023/05/24 02:19:50;;;;;;;17.10;6.28;;;7.80;99.90;;;;;;5035155;28;20036;-36
2023/05/24 02:22:15;;;;;;;21.50;6.15;;;7.80;99.90;;;;;;5053918;28;20067;-35
2023/05/24 02:24:42;;;;;;;19.17;7.05;;;7.80;99.90;;;;;;5054142;28;20028;-36
2023/05/24 02:27:08;;;;;;;20.15;5.80;;;7.80;99.90;;;;;;5049551;28;20401;-34
2023/05/24 02:29:33;;;;;;;20.70;6.40;;;7.80;99.90;;;;;;5040532;28;20117;-34
2023/05/24 02:31:59;;;;;;;22.70;6.45;;;7.80;99.90;;;;;;5054233;28;20102;-34
2023/05/24 02:34:25;;;;;;;16.60;5.80;;;7.80;99.90;;;;;;5048226;28;20037;-34
2023/05/24 02:36:53;;;;;;;19.08;5.97;;;7.80;99.90;;;;;;5044608;28;20082;-36
2023/05/24 02:39:19;;;;;;;26.08;7.10;;;7.80;99.90;;;;;;5052233;28;20078;-34
2023/05/24 02:41:45;;;;;;;20.52;6.07;;;7.80;99.90;;;;;;5053523;28;20045;-34
2023/05/24 02:44:10;;;;;;;22.55;6.57;;;7.70;99.90;;;;;;5054072;28;20047;-36
2023/05/24 02:46:36;;;;;;;21.38;6.60;;;7.80;99.90;;;;;;5053665;28;20039;-34
2023/05/24 02:49:02;;;;;;;22.88;6.72;;;7.80;99.90;;;;;;5054031;28;20035;-35
2023/05/24 02:51:28;;;;;;;19.67;5.40;;;7.80;99.90;;;;;;5034707;28;20052;-33
2023/05/24 02:53:53;;;;;;;18.33;5.82;;;7.90;99.90;;;;;;5044732;28;20041;-35
2023/05/24 02:56:20;;;;;;;20.70;6.15;;;8.00;99.90;;;;;;5036894;28;20095;-35
2023/05/24 02:58:46;;;;;;;18.10;6.38;;;8.10;99.90;;;;;;5026445;28;20060;-35
2023/05/24 03:01:12;;;;;;;21.58;5.90;;;8.10;99.90;;;;;;5053904;28;20028;-34
2023/05/24 03:03:38;;;;;;;16.55;6.13;;;8.20;99.90;;;;;;5053771;28;20069;-34
2023/05/24 03:06:05;;;;;;;18.08;5.72;;;8.20;99.90;;;;;;5053682;28;20089;-34
2023/05/24 03:08:36;;;;;;;22.27;7.07;;;8.30;99.90;;;;;;5053369;28;20048;-35
2023/05/24 03:11:02;;;;;;;22.13;6.55;;;8.30;99.90;;;;;;5045103;28;20097;-34
2023/05/24 03:13:28;;;;;;;25.17;6.57;;;8.30;99.90;;;;;;5035138;28;20037;-36
2023/05/24 03:15:53;;;;;;;19.85;5.78;;;8.30;99.90;;;;;;5037895;28;20052;-35
2023/05/24 03:18:19;;;;;;;17.35;6.47;;;8.40;99.90;;;;;;5037341;28;20107;-37
2023/05/24 03:20:45;;;;;;;24.80;6.38;;;8.30;99.90;;;;;;5044014;28;20040;-34
2023/05/24 03:23:11;;;;;;;20.92;6.55;;;8.20;99.90;;;;;;5049070;28;20040;-34
2023/05/24 03:25:37;;;;;;;21.02;6.70;;;8.20;99.90;;;;;;5041015;28;20174;-35
2023/05/24 03:28:02;;;;;;;29.50;8.18;;;8.20;99.90;;;;;;5037140;28;20510;-33
2023/05/24 03:30:28;;;;;;;18.10;5.80;;;8.10;99.90;;;;;;5042833;28;20067;-34
2023/05/24 03:32:54;;;;;;;16.02;6.50;;;8.10;99.90;;;;;;5045810;28;20037;-39
2023/05/24 03:35:20;;;;;;;18.90;5.93;;;8.10;99.90;;;;;;5051780;28;20087;-40
2023/05/24 03:37:46;;;;;;;20.25;6.45;;;8.10;99.90;;;;;;5054252;28;20079;-39
2023/05/24 03:40:14;;;;;;;17.88;6.38;;;8.10;99.90;;;;;;5052428;28;20291;-38
2023/05/24 03:42:40;;;;;;;20.55;6.72;;;8.20;99.90;;;;;;5052090;28;20120;-36
2023/05/24 03:45:07;;;;;;;20.20;6.03;;;8.30;99.90;;;;;;5056055;28;20120;-36
2023/05/24 03:47:32;;;;;;;21.13;5.90;;;8.30;99.90;;;;;;5048196;28;20040;-38
2023/05/24 03:49:58;;;;;;;17.77;5.95;;;8.30;99.90;;;;;;5054298;28;20475;-37
2023/05/24 03:52:24;;;;;;;14.30;5.75;;;8.30;99.90;;;;;;5056142;28;20036;-36
2023/05/24 03:54:50;;;;;;;21.85;6.47;;;8.30;99.90;;;;;;5051932;28;20459;-39
2023/05/24 03:57:16;;;;;;;18.30;6.13;;;8.40;99.90;;;;;;5051745;28;20045;-41
2023/05/24 03:59:42;;;;;;;22.33;6.65;;;8.40;99.90;;;;;;5051811;28;20481;-39
2023/05/24 04:02:08;;;;;;;22.42;6.35;;;8.40;99.90;;;;;;5055118;28;20040;-36
2023/05/24 04:04:35;;;;;;;20.05;5.88;;;8.40;99.90;;;;;;5055871;28;20028;-39
2023/05/24 04:07:01;;;;;;;18.45;6.00;;;8.40;99.90;;;;;;5053408;28;20052;-39
2023/05/24 04:09:27;;;;;;;19.92;5.60;;;8.50;99.90;;;;;;5054728;28;20033;-39
2023/05/24 04:11:53;;;;;;;24.67;6.40;;;8.40;99.90;;;;;;5054280;28;20175;-36
2023/05/24 04:14:19;;;;;;;25.50;6.50;;;8.40;99.90;;;;;;5056057;28;20520;-36
2023/05/24 04:16:45;;;;;;;23.55;6.10;;;8.40;99.90;;;;;;5055069;28;20040;-36
2023/05/24 04:19:11;;;;;;;21.67;6.53;;;8.40;99.90;;;;;;5056124;28;20028;-33
2023/05/24 04:21:40;;;;;;;16.77;5.65;;;8.40;99.90;;;;;;5056243;28;20048;-36
2023/05/24 04:24:06;;;;;;;17.73;5.93;;;8.40;99.90;;;;;;5055452;28;20036;-34
2023/05/24 04:26:33;;;;;;;22.30;6.55;;;8.40;99.90;;;;;;5056086;28;20051;-33
2023/05/24 04:28:59;;;;;;;18.42;5.93;;;8.40;99.90;;;;;;5041955;28;20040;-35
2023/05/24 04:31:28;;;;;;;21.52;6.47;;;8.50;99.90;;;;;;5055902;28;20047;-35
2023/05/24 04:33:54;;;;;;;24.85;6.55;;;8.50;99.90;;;;;;5055681;28;20462;-33
2023/05/24 04:36:21;;;;;;;18.15;5.50;;;8.50;99.90;;;;;;5051018;28;20069;-36
2023/05/24 04:38:47;;;;;;;21.00;6.13;;;8.60;99.90;;;;;;5045271;28;20037;-38
2023/05/24 04:41:13;;;;;;;18.83;6.07;;;8.60;99.90;;;;;;5055307;28;20048;-33
2023/05/24 04:43:39;;;;;;;24.60;6.65;;;8.70;99.90;;;;;;5054081;28;20066;-34
2023/05/24 04:46:05;;;;;;;18.00;7.30;;;8.80;99.90;;;;;;5055818;28;20473;-36
2023/05/24 04:48:31;;;;;;;24.98;6.05;;;8.90;99.90;;;;;;5049008;28;20068;-34
2023/05/24 04:50:57;;;;;;;22.48;7.10;;;8.90;99.90;;;;;;5045479;28;20079;-33
2023/05/24 04:53:23;;;;;;;18.08;6.13;;;9.00;99.90;;;;;;5041623;28;20041;-35
2023/05/24 04:55:50;;;;;;;18.45;5.75;;;9.00;99.90;;;;;;5070963;28;20047;-35
2023/05/24 04:58:16;;;;;;;18.23;5.22;;;9.10;99.90;;;;;;5052225;28;20048;-34
2023/05/24 05:00:43;;;;;;;19.67;6.50;;;9.10;99.90;;;;;;5047909;28;20095;-35
2023/05/24 05:03:09;;;;;;;20.35;6.40;;;9.20;99.90;;;;;;5032765;28;20064;-33
2023/05/24 05:05:35;;;;;;;15.40;5.22;;;9.30;99.90;;;;;;5044545;28;20097;-38
2023/05/24 05:08:02;;;;;;;25.45;6.18;;;9.40;99.90;;;;;;5047489;28;20037;-38
2023/05/24 05:10:28;;;;;;;12.93;4.90;;;9.50;99.90;;;;;;5050865;28;20036;-37
2023/05/24 05:12:54;;;;;;;20.05;5.97;;;9.60;99.90;;;;;;5045384;28;20033;-36
2023/05/24 05:15:22;;;;;;;18.50;5.63;;;9.70;99.90;;;;;;5046102;28;20082;-35
2023/05/24 05:17:48;;;;;;;16.55;5.57;;;9.70;99.90;;;;;;5049593;28;20063;-37
2023/05/24 05:20:14;;;;;;;17.00;6.32;;;9.80;99.90;;;;;;5047709;28;20478;-35
2023/05/24 05:22:47;;;;;;;25.25;6.03;;;9.90;99.90;;;;;;5049412;28;20033;-41
2023/05/24 05:25:13;;;;;;;17.33;4.95;;;9.90;99.90;;;;;;5046471;28;20039;-37
2023/05/24 05:27:39;;;;;;;18.70;6.38;;;10.00;99.90;;;;;;5050544;28;20115;-37
2023/05/24 05:30:05;;;;;;;16.35;5.78;;;10.10;99.90;;;;;;5048161;28;20036;-36
2023/05/24 05:32:31;;;;;;;16.05;5.32;;;10.20;99.90;;;;;;5050916;28;20442;-36
2023/05/24 05:34:57;;;;;;;17.80;5.13;;;10.20;99.90;;;;;;5049780;28;20296;-36
2023/05/24 05:37:23;;;;;;;16.13;5.70;;;10.30;99.90;;;;;;5044796;28;20041;-37
2023/05/24 05:39:48;;;;;;;13.77;4.80;;;10.40;99.90;;;;;;5033328;28;20407;-38
2023/05/24 05:42:14;;;;;;;16.95;5.25;;;10.50;99.90;;;;;;5042339;28;20086;-36
2023/05/24 05:44:40;;;;;;;19.33;5.53;;;10.60;99.90;;;;;;5030242;28;20037;-36
2023/05/24 05:47:08;;;;;;;14.45;4.93;;;10.60;99.90;;;;;;5047185;28;20094;-39
2023/05/24 05:49:37;;;;;;;12.77;4.80;;;10.70;99.90;;;;;;5052498;28;20037;-37
2023/05/24 05:52:04;;;;;;;14.25;5.25;;;10.80;99.90;;;;;;5048694;28;20032;-36
2023/05/24 05:54:30;;;;;;;18.17;5.03;;;10.90;99.90;;;;;;5051886;28;20071;-36
2023/05/24 05:56:56;;;;;;;15.23;4.97;;;11.10;99.90;;;;;;5034430;28;20098;-36
2023/05/24 05:59:22;;;;;;;18.58;5.57;;;11.20;99.90;;;;;;5031466;28;20033;-38
2023/05/24 06:01:48;;;;;;;18.48;5.30;;;11.40;99.90;;;;;;5053259;28;20037;-40
2023/05/24 06:04:15;;;;;;;16.83;4.97;;;11.60;99.90;;;;;;5036407;28;20045;-37
2023/05/24 06:06:40;;;;;;;17.85;5.10;;;11.70;99.90;;;;;;5045976;28;20072;-37
2023/05/24 06:09:07;;;;;;;15.23;4.65;;;11.80;99.90;;;;;;5047590;28;20076;-36
2023/05/24 06:11:33;;;;;;;14.35;4.82;;;11.90;99.90;;;;;;5045409;28;20390;-37
2023/05/24 06:13:58;;;;;;;14.65;4.75;;;11.80;99.90;;;;;;5046763;28;20481;-39
2023/05/24 06:16:24;;;;;;;19.30;5.53;;;11.70;99.90;;;;;;5052815;28;20032;-36
2023/05/24 06:18:50;;;;;;;16.55;4.95;;;11.80;99.90;;;;;;5051704;28;21292;-37
2023/05/24 06:21:16;;;;;;;19.77;5.07;;;11.90;99.90;;;;;;5033369;28;20037;-37
2023/05/24 06:23:43;;;;;;;18.83;5.15;;;12.10;99.90;;;;;;5059531;28;20127;-36
2023/05/24 06:26:09;;;;;;;11.10;4.38;;;12.20;99.90;;;;;;5053119;28;20037;-38
2023/05/24 06:28:35;;;;;;;14.02;4.95;;;12.20;99.90;;;;;;5055603;28;20483;-36
2023/05/24 06:31:02;;;;;;;14.43;4.40;;;12.30;99.90;;;;;;5052500;28;20039;-37
2023/05/24 06:33:28;;;;;;;18.80;5.25;;;12.30;99.90;;;;;;5050139;28;20032;-36
2023/05/24 06:35:54;;;;;;;14.00;4.57;;;12.30;99.90;;;;;;5052359;28;20157;-36
2023/05/24 06:38:20;;;;;;;13.27;4.85;;;12.40;99.90;;;;;;5053159;28;20504;-36
2023/05/24 06:40:46;;;;;;;13.30;4.15;;;12.40;99.90;;;;;;5052981;28;20036;-36
2023/05/24 06:43:12;;;;;;;12.05;4.00;;;12.40;99.90;;;;;;5041490;28;20520;-39
2023/05/24 06:45:37;;;;;;;15.70;5.00;;;12.40;99.90;;;;;;5046969;28;20055;-38
2023/05/24 06:48:03;;;;;;;14.98;5.35;;;12.40;99.90;;;;;;5033071;28;20072;-39
2023/05/24 06:50:29;;;;;;;14.27;4.72;;;12.40;99.90;;;;;;5051212;28;20120;-37
2023/05/24 06:52:55;;;;;;;10.30;4.13;;;12.50;99.90;;;;;;5053786;28;20079;-35
2023/05/24 06:55:21;;;;;;;17.17;4.95;;;12.50;99.90;;;;;;5048888;28;20497;-40
2023/05/24 06:57:47;;;;;;;12.10;4.63;;;12.50;99.90;;;;;;5072884;28;20036;-37
2023/05/24 07:00:13;;;;;;;16.35;4.63;;;12.50;99.90;;;;;;5043842;28;20032;-37
2023/05/24 07:02:40;;;;;;;13.57;5.38;;;12.60;99.90;;;;;;5048575;28;20033;-40
2023/05/24 07:05:10;;;;;;;12.38;5.03;;;12.70;99.90;;;;;;5052644;28;20037;-36
2023/05/24 07:07:46;;;;;;;16.77;5.40;;;12.70;99.90;;;;;;5053417;28;20068;-39
2023/05/24 07:10:12;;;;;;;13.57;4.80;;;12.80;99.90;;;;;;5040792;28;20465;-37
2023/05/24 07:12:38;;;;;;;19.38;5.35;;;12.90;99.90;;;;;;5051686;28;20067;-38
2023/05/24 07:15:05;;;;;;;13.13;4.72;;;13.00;99.90;;;;;;5050581;28;20076;-38
2023/05/24 07:17:31;;;;;;;14.40;4.30;;;13.10;99.90;;;;;;5054725;28;20037;-36
2023/05/24 07:19:58;;;;;;;14.93;4.13;;;13.20;99.90;;;;;;5056266;28;20090;-36
2023/05/24 07:22:27;;;;;;;16.70;3.95;;;13.20;99.90;;;;;;5047324;28;20033;-36
2023/05/24 07:24:53;;;;;;;13.98;3.65;;;13.20;99.90;;;;;;5053451;28;20072;-38
2023/05/24 07:27:19;;;;;;;13.68;4.30;;;13.30;99.90;;;;;;5047671;28;20048;-40
2023/05/24 07:29:45;;;;;;;10.48;4.35;;;13.50;99.90;;;;;;5057689;28;20045;-36
2023/05/24 07:32:11;;;;;;;12.25;4.30;;;13.70;99.90;;;;;;5069092;28;20040;-39
2023/05/24 07:34:38;;;;;;;12.18;4.15;;;13.90;99.90;;;;;;5056050;28;20036;-36
2023/05/24 07:37:04;;;;;;;13.48;4.18;;;14.30;99.90;;;;;;5052387;28;20036;-37
2023/05/24 07:39:30;;;;;;;10.52;3.88;;;14.50;99.90;;;;;;5046416;28;20163;-40
2023/05/24 07:41:56;;;;;;;14.15;4.00;;;14.70;99.90;;;;;;5056110;28;20094;-37
2023/05/24 07:44:25;;;;;;;10.45;3.60;;;14.70;99.90;;;;;;5056145;28;20406;-40
2023/05/24 07:46:51;;;;;;;9.57;3.92;;;14.80;99.90;;;;;;5032816;28;20465;-36
2023/05/24 07:49:17;;;;;;;12.27;3.63;;;14.80;99.90;;;;;;5055954;28;20067;-35
2023/05/24 07:51:42;;;;;;;9.88;3.55;;;14.80;99.90;;;;;;5056060;28;20036;-36
2023/05/24 07:54:08;;;;;;;13.35;4.10;;;14.90;99.90;;;;;;5054426;28;20520;-37
2023/05/24 07:56:34;;;;;;;12.07;3.50;;;14.90;99.90;;;;;;5056710;28;20516;-38
2023/05/24 07:59:03;;;;;;;10.38;3.58;;;14.80;99.90;;;;;;5052818;28;20044;-36
2023/05/24 08:01:31;;;;;;;10.75;3.42;;;14.70;99.90;;;;;;5055650;28;20115;-37
2023/05/24 08:03:56;;;;;;;12.95;3.65;;;14.60;99.90;;;;;;5059325;28;20090;-37
2023/05/24 08:06:23;;;;;;;10.85;3.55;;;14.70;99.90;;;;;;5053714;28;20036;-37
2023/05/24 08:08:49;;;;;;;10.05;3.70;;;14.70;99.90;;;;;;5045186;28;20444;-38
2023/05/24 08:11:15;;;;;;;8.77;3.28;;;14.70;99.90;;;;;;5070582;28;20090;-39
2023/05/24 08:13:43;;;;;;;10.70;3.70;;;14.60;99.90;;;;;;5057301;28;20072;-38
2023/05/24 08:16:12;;;;;;;8.32;3.47;;;14.70;99.90;;;;;;5071522;28;20037;-39
2023/05/24 08:18:39;;;;;;;10.25;2.97;;;14.70;99.90;;;;;;5063470;28;20048;-34
2023/05/24 08:21:05;;;;;;;9.90;3.17;;;14.70;99.90;;;;;;5057373;28;20051;-42
2023/05/24 08:23:32;;;;;;;7.55;2.92;;;14.80;99.90;;;;;;5061205;28;20054;-41
2023/05/24 08:25:58;;;;;;;7.40;2.80;;;15.00;99.90;;;;;;5057829;28;20036;-38
2023/05/24 08:28:25;;;;;;;6.40;3.47;;;15.00;99.90;;;;;;5045697;28;20036;-42
2023/05/24 08:31:18;;;;;;;9.65;3.08;;;15.10;99.90;;;;;;5054217;28;20075;-37
2023/05/24 08:41:13;;;;;;;9.30;3.40;;;15.70;99.90;;;;;;5071083;28;20487;-40
2023/05/24 08:43:41;;;;;;;13.35;3.08;;;15.80;99.90;;;;;;5063576;28;20127;-37
2023/05/24 08:46:12;;;;;;;9.80;3.20;;;15.70;99.90;;;;;;5055585;28;20409;-36
2023/05/24 08:48:48;;;;;;;10.93;3.95;;;15.60;99.90;;;;;;5073629;28;20032;-36
2023/05/24 08:51:15;;;;;;;12.40;3.72;;;15.60;99.90;;;;;;5068480;28;20522;-36
2023/05/24 08:53:47;;;;;;;8.80;2.97;;;15.50;99.90;;;;;;5055008;28;20076;-36
2023/05/24 08:56:17;;;;;;;12.00;3.97;;;15.40;99.90;;;;;;5051009;28;20128;-36
2023/05/24 08:58:44;;;;;;;10.27;3.42;;;15.50;99.90;;;;;;5048054;28;20029;-38
2023/05/24 09:01:17;;;;;;;10.40;3.70;;;15.50;99.90;;;;;;5067494;28;20063;-37
2023/05/24 09:03:45;;;;;;;10.45;3.38;;;15.70;99.90;;;;;;5059008;28;20102;-35
2023/05/24 09:06:15;;;;;;;10.30;3.78;;;15.70;99.90;;;;;;5066216;28;20064;-36
2023/05/24 09:08:43;;;;;;;12.68;3.17;;;15.70;99.90;;;;;;5038404;28;20082;-35
2023/05/24 09:11:10;;;;;;;12.45;3.38;;;15.80;99.90;;;;;;5051695;28;20037;-37
2023/05/24 09:14:12;;;;;;;10.23;2.95;;;15.80;99.90;;;;;;5057749;28;20516;-36
2023/05/24 09:16:39;;;;;;;8.82;3.20;;;15.80;99.90;;;;;;5055101;28;20039;-36
2023/05/24 09:19:17;;;;;;;11.93;3.90;;;15.80;99.90;;;;;;5077640;28;20040;-35
2023/05/24 09:21:43;;;;;;;8.30;3.45;;;15.90;99.90;;;;;;5054576;28;20049;-36
2023/05/24 09:24:46;;;;;;;9.93;3.17;;;15.80;99.90;;;;;;5053858;28;20039;-36
2023/05/24 09:27:28;;;;;;;8.77;3.03;;;15.80;99.90;;;;;;5061446;28;20044;-38
2023/05/24 09:30:11;;;;;;;9.95;3.47;;;15.90;99.90;;;;;;5068917;28;20040;-36
2023/05/24 09:32:37;;;;;;;;;;;16.00;99.90;;;;;;5042325;28;20045;-37
2023/05/24 09:35:08;;;;;;;12.50;3.28;;;16.00;99.90;;;;;;5054480;28;19916;-37
2023/05/24 09:38:05;;;;;;;10.35;3.28;;;16.10;99.90;;;;;;5053354;28;20039;-38
2023/05/24 09:41:11;;;;;;;10.40;3.53;;;16.30;99.90;;;;;;5052223;28;20469;-36
2023/05/24 09:43:48;;;;;;;14.77;3.45;;;16.30;99.90;;;;;;5036715;28;20049;-34
2023/05/24 09:46:18;;;;;;;8.05;3.55;;;16.40;99.90;;;;;;5051248;28;20043;-34
2023/05/24 09:49:02;;;;;;;13.57;3.40;;;16.20;99.90;;;;;;5050252;28;20044;-38
2023/05/24 09:51:28;;;;;;;8.35;3.35;;;15.90;99.90;;;;;;5050402;28;20119;-34
2023/05/24 09:54:00;;;;;;;7.43;3.47;;;15.80;99.90;;;;;;5053859;28;20033;-36
2023/05/24 09:56:26;;;;;;;13.07;3.53;;;15.70;99.90;;;;;;5054110;28;20403;-36
2023/05/24 09:58:53;;;;;;;11.25;3.75;;;15.70;99.90;;;;;;5052131;28;20040;-37
2023/05/24 10:01:24;;;;;;;10.95;3.45;;;15.80;99.90;;;;;;5060750;28;20036;-35
2023/05/24 10:03:53;;;;;;;11.00;3.20;;;15.90;99.90;;;;;;5059837;28;20052;-37
2023/05/24 10:06:19;;;;;;;7.50;3.20;;;16.10;99.90;;;;;;5054179;28;20505;-35
2023/05/24 10:08:53;;;;;;;8.10;3.42;;;16.50;99.90;;;;;;5053280;28;20036;-34
2023/05/24 10:11:19;;;;;;;;;;;17.60;99.90;;;;;;5053048;28;20039;-39
2023/05/24 10:13:49;;;;;;;7.30;2.50;;;18.40;99.90;;;;;;5069860;28;19971;-38
2023/05/24 10:16:15;;;;;;;8.07;3.17;;;18.70;99.90;;;;;;5060248;28;20035;-38
2023/05/24 10:18:41;;;;;;;6.07;2.90;;;18.70;99.90;;;;;;5055512;28;20040;-38
2023/05/24 10:21:08;;;;;;;6.45;3.35;;;18.60;99.90;;;;;;5050453;28;20037;-38
2023/05/24 10:23:37;;;;;;;6.20;2.80;;;18.60;99.70;;;;;;5048601;28;20461;-36
2023/05/24 10:26:11;;;;;;;6.85;2.95;;;18.60;97.70;;;;;;5068467;28;20040;-37
2023/05/24 10:28:54;;;;;;;7.22;3.22;;;18.50;94.90;;;;;;5035392;28;20039;-36
2023/05/24 10:31:31;;;;;;;5.43;2.88;;;18.50;90.60;;;;;;5052299;28;20051;-38
2023/05/24 10:34:00;;;;;;;7.72;2.80;;;18.30;91.70;;;;;;5048890;28;20041;-35
2023/05/24 10:36:31;;;;;;;5.72;2.45;;;18.30;95.10;;;;;;5054196;28;20051;-37
2023/05/24 10:38:57;;;;;;;6.70;2.58;;;18.50;91.20;;;;;;5053587;28;20036;-36
2023/05/24 10:41:26;;;;;;;5.20;2.35;;;18.60;91.00;;;;;;5053511;28;20079;-39
2023/05/24 10:43:52;;;;;;;5.18;2.50;;;18.50;87.10;;;;;;5053176;28;20307;-34
2023/05/24 10:46:20;;;;;;;5.18;2.47;;;18.20;85.00;;;;;;5051449;28;20036;-33
2023/05/24 10:49:06;;;;;;;5.55;2.70;;;18.10;83.80;;;;;;5053309;28;20090;-34
2023/05/24 10:51:35;;;;;;;6.38;2.63;;;17.80;81.60;;;;;;5053277;28;20131;-35
2023/05/24 10:54:18;;;;;;;5.65;2.65;;;17.70;91.30;;;;;;5051679;28;20032;-34
2023/05/24 10:56:49;;;;;;;7.35;3.00;;;17.50;87.50;;;;;;5054432;28;20071;-38
2023/05/24 10:59:44;;;;;;;6.93;2.83;;;17.30;84.50;;;;;;5049867;28;20058;-34
2023/05/24 11:02:15;;;;;;;5.82;2.65;;;17.20;92.80;;;;;;5051128;28;20400;-40
2023/05/24 11:04:48;;;;;;;4.30;2.60;;;17.10;91.60;;;;;;5051335;28;20466;-37
2023/05/24 11:07:16;;;;;;;5.55;2.58;;;17.00;91.10;;;;;;5053254;28;20103;-36
2023/05/24 11:09:45;;;;;;;6.68;3.10;;;17.00;92.00;;;;;;5052804;28;20090;-36
2023/05/24 11:12:16;;;;;;;7.90;3.03;;;17.20;91.90;;;;;;5048479;28;20068;-35
2023/05/24 11:14:50;;;;;;;5.97;2.42;;;17.00;90.90;;;;;;5051722;28;20043;-35
2023/05/24 11:17:16;;;;;;;6.95;2.67;;;17.10;92.80;;;;;;5048404;28;20048;-35
2023/05/24 11:19:49;;;;;;;5.38;2.42;;;17.10;93.00;;;;;;5062785;28;20046;-35
2023/05/24 11:22:16;;;;;;;6.57;3.22;;;17.10;94.50;;;;;;5047185;28;20056;-35
2023/05/24 11:24:44;;;;;;;6.70;2.88;;;17.00;96.00;;;;;;5051955;28;20113;-34
2023/05/24 11:27:11;;;;;;;6.90;2.90;;;17.10;96.80;;;;;;5053312;28;20032;-34
2023/05/24 11:29:45;;;;;;;8.13;3.00;;;17.10;97.60;;;;;;5047081;28;20033;-35
2023/05/24 11:32:15;;;;;;;12.00;4.00;;;17.10;98.60;;;;;;5052587;28;20376;-38
2023/05/24 11:34:43;;;;;;;6.28;2.95;;;17.30;99.00;;;;;;5055873;28;20041;-35
2023/05/24 11:37:10;;;;;;;10.13;3.70;;;17.40;99.00;;;;;;5056889;28;20032;-38
2023/05/24 11:39:36;;;;;;;8.90;3.88;;;17.50;97.40;;;;;;5055873;28;20045;-37
2023/05/24 11:42:07;;;;;;;10.38;3.58;;;17.70;97.40;;;;;;5056436;28;20044;-39
2023/05/24 11:44:34;;;;;;;9.35;3.15;;;17.80;96.80;;;;;;5057393;28;20043;-37
2023/05/24 11:47:07;;;;;;;5.05;2.53;;;18.00;94.40;;;;;;5055187;28;20119;-34
2023/05/24 11:49:33;;;;;;;5.63;2.45;;;18.10;91.20;;;;;;5057535;28;20040;-38
2023/05/24 11:52:00;;;;;;;8.52;3.45;;;18.00;83.00;;;;;;5056637;28;20577;-35
2023/05/24 11:54:27;;;;;;;8.25;2.92;;;18.10;86.50;;;;;;5038792;28;20087;-39
2023/05/24 11:56:54;;;;;;;5.85;2.50;;;18.10;82.20;;;;;;5054472;28;20040;-41
2023/05/24 11:59:27;;;;;;;5.80;2.45;;;18.50;83.50;;;;;;5047618;28;20036;-41
2023/05/24 12:02:11;;;;;;;6.13;3.33;;;18.70;75.80;;;;;;5052309;28;20178;-35
2023/05/24 12:04:38;;;;;;;5.93;2.28;;;18.60;77.80;;;;;;5055683;28;20128;-35
2023/05/24 12:07:09;;;;;;;6.05;2.85;;;18.50;79.50;;;;;;5055840;28;20059;-35
2023/05/24 12:09:35;;;;;;;6.13;2.40;;;18.40;80.40;;;;;;5061107;28;20039;-37
2023/05/24 12:12:01;;;;;;;5.80;2.70;;;18.40;82.80;;;;;;5064634;28;20036;-35
2023/05/24 12:14:29;;;;;;;5.50;3.10;;;18.40;82.90;;;;;;5058918;28;20036;-38
2023/05/24 12:16:55;;;;;;;6.60;3.33;;;18.30;81.80;;;;;;5060832;28;20037;-39
2023/05/24 12:19:24;;;;;;;4.68;2.50;;;18.20;83.00;;;;;;5057215;28;20485;-37
2023/05/24 12:21:55;;;;;;;9.55;3.00;;;18.10;82.10;;;;;;5058291;28;20410;-36
2023/05/24 12:24:22;;;;;;;7.95;2.72;;;18.00;83.00;;;;;;5055014;28;20044;-39
2023/05/24 12:26:48;;;;;;;6.90;2.95;;;17.90;85.20;;;;;;5057203;28;20036;-38
2023/05/24 12:29:15;;;;;;;9.43;3.13;;;17.70;89.50;;;;;;5052750;28;20029;-36
2023/05/24 12:31:42;;;;;;;6.72;2.70;;;17.60;92.40;;;;;;5054777;28;20535;-37
2023/05/24 12:34:17;;;;;;;5.28;2.83;;;17.50;93.70;;;;;;5039226;28;20471;-40
2023/05/24 12:36:43;;;;;;;8.93;2.97;;;17.40;94.90;;;;;;5056194;28;20535;-37
2023/05/24 12:39:36;;;;;;;7.50;2.92;;;17.30;96.40;;;;;;5053972;28;20481;-40
2023/05/24 12:42:03;;;;;;;9.23;3.05;;;17.20;96.70;;;;;;5043255;28;20045;-37
2023/05/24 12:44:37;;;;;;;7.28;2.78;;;17.00;98.60;;;;;;5055543;28;20401;-39
2023/05/24 12:47:05;;;;;;;12.35;3.20;;;17.10;99.70;;;;;;5056995;28;20389;-36
2023/05/24 12:49:31;;;;;;;6.40;2.63;;;17.20;99.90;;;;;;5073336;28;20045;-36
2023/05/24 12:51:57;;;;;;;7.45;3.40;;;17.40;99.90;;;;;;5072729;28;20493;-38
2023/05/24 12:54:25;;;;;;;7.00;3.28;;;17.70;99.70;;;;;;5053078;28;20450;-37
2023/05/24 12:56:52;;;;;;;9.10;3.55;;;18.00;98.60;;;;;;5055606;28;20032;-38
2023/05/24 12:59:18;;;;;;;8.68;2.75;;;18.50;96.20;;;;;;5055555;28;20121;-40
2023/05/24 13:01:54;;;;;;;7.80;3.08;;;18.90;93.00;;;;;;5054377;28;20440;-40